Tropical Cyclones
[Index]
Main Index Home Page Stock Weather Photos Extreme Storms Discussion Storm News and Storm Chasing Reports Tropical Cyclones / Hurricanes / Typhoons Weather Data and Links Wild Fires / Bushfires Weather Observation Techniques Weather Picture Catalogue Tornado Pictures and Reports Stock Video Footage and DVDs for sale
Season 2006-2007 Tropical Cyclone PIERRE Track Map
Season 2006-2007 Summaries: [BoM-AU] [JTWC-AU] [JTWC-SIO] [JTWC-SPAC] [JTWC-SH]
<<- Previous TC | BoM 2006-2007 Season | Next TC ->>

click for intensity scale information  Lat/long Grid: Show Hide

 Date Labels: Show Hide

Bureau of Meteorology Tropical Cyclone Data

Name: PIERRE
Number: 908 / 200607_16

15 May 2007 12:00 UTC to 23 May 2007 06:00 UTC

    date/time    lat    long    hPa   cat  kts
2007-05-15 12    9.7   157.7   1000         30          
2007-05-15 18   10.0   157.6    998         33          
2007-05-16 00   10.5   157.5    995    1    35          
2007-05-16 06   11.0   157.5    992    1    35          
2007-05-16 12   11.0   157.2    992    1    40          
2007-05-16 18   10.8   156.9    990    1    40          
2007-05-17 00   10.7   156.5    990    1    40          
2007-05-17 06   10.6   156.0    992    1    35          
2007-05-17 12   10.6   155.0    995    1    35          
2007-05-17 18   10.5   154.0    999         30          
2007-05-18 00   10.3   153.4   1004         30          
2007-05-18 06    9.8   152.8   1003         30          
2007-05-18 12    9.5   152.4   1006         25          
2007-05-18 18    9.2   152.0   1005         25          
2007-05-19 00    9.0   151.7   1006         20          
2007-05-19 06    8.8   151.4   1004         20          
2007-05-19 12    8.8   151.2   1007         20          
2007-05-19 18    9.0   150.9   1005         25          
2007-05-20 00    9.2   150.5   1006         30          
2007-05-20 06    9.3   149.3   1005         25          
2007-05-20 12   10.0   147.6   1008         25          
2007-05-20 18   10.4   146.8   1007         30          
2007-05-21 00   10.8   146.0   1008         30          
2007-05-21 06   11.1   145.1   1007         25          
2007-05-21 12   10.9   144.3   1009         25          
2007-05-21 18   10.6   143.6   1008         20          
2007-05-22 00   10.5   142.7   1010         15          
2007-05-22 06   10.2   142.1   1007         15          
2007-05-22 12   10.0   141.1   1009         15          
2007-05-22 18    9.9   140.1   1007         20          
2007-05-23 00   10.0   139.0   1008         25          
2007-05-23 06   10.0   138.0   1005         20          
Winds are 10-min average.

Tropical cyclone tracks developed by Michael Bath using data from the Bureau of Meteorology and Google Maps.


[Australian Severe Weather index] [Copyright Notice] [Email Contacts] [Search This Site] [Privacy Policy]
Document: tropical_cyclone_pierre.htm Updated: 29 June 2017